sensor_id;sensor_type;location;lat;lon;timestamp;P1;durP1;ratioP1;P2;durP2;ratioP2
20294;SDS011;10306;52.128;5.208;2023-04-29T00:01:25;39.00;;;19.80;;
20294;SDS011;10306;52.128;5.208;2023-04-29T00:03:51;40.37;;;20.03;;
20294;SDS011;10306;52.128;5.208;2023-04-29T00:06:18;39.13;;;19.07;;
20294;SDS011;10306;52.128;5.208;2023-04-29T00:08:44;36.73;;;19.67;;
20294;SDS011;10306;52.128;5.208;2023-04-29T00:11:10;41.93;;;20.93;;
20294;SDS011;10306;52.128;5.208;2023-04-29T00:13:36;43.10;;;21.27;;
20294;SDS011;10306;52.128;5.208;2023-04-29T00:16:04;40.23;;;20.03;;
20294;SDS011;10306;52.128;5.208;2023-04-29T00:18:31;40.60;;;20.37;;
20294;SDS011;10306;52.128;5.208;2023-04-29T00:20:57;38.10;;;19.67;;
20294;SDS011;10306;52.128;5.208;2023-04-29T00:23:23;40.43;;;20.93;;
20294;SDS011;10306;52.128;5.208;2023-04-29T00:25:48;40.07;;;21.47;;
20294;SDS011;10306;52.128;5.208;2023-04-29T00:28:17;41.20;;;20.83;;
20294;SDS011;10306;52.128;5.208;2023-04-29T00:30:43;39.50;;;21.73;;
20294;SDS011;10306;52.128;5.208;2023-04-29T00:33:09;37.73;;;20.40;;
20294;SDS011;10306;52.128;5.208;2023-04-29T00:35:35;40.37;;;22.00;;
20294;SDS011;10306;52.128;5.208;2023-04-29T00:38:01;41.23;;;20.27;;
20294;SDS011;10306;52.128;5.208;2023-04-29T00:40:27;42.80;;;20.73;;
20294;SDS011;10306;52.128;5.208;2023-04-29T00:42:53;47.90;;;20.27;;
20294;SDS011;10306;52.128;5.208;2023-04-29T00:45:19;36.67;;;19.83;;
20294;SDS011;10306;52.128;5.208;2023-04-29T00:47:45;39.93;;;21.43;;
20294;SDS011;10306;52.128;5.208;2023-04-29T00:50:11;36.10;;;19.23;;
20294;SDS011;10306;52.128;5.208;2023-04-29T00:52:37;40.33;;;19.73;;
20294;SDS011;10306;52.128;5.208;2023-04-29T00:55:04;37.10;;;19.03;;
20294;SDS011;10306;52.128;5.208;2023-04-29T00:57:30;42.30;;;20.87;;
20294;SDS011;10306;52.128;5.208;2023-04-29T00:59:56;34.07;;;18.87;;
20294;SDS011;10306;52.128;5.208;2023-04-29T01:02:23;30.67;;;18.10;;
20294;SDS011;10306;52.128;5.208;2023-04-29T01:04:50;29.57;;;16.83;;
20294;SDS011;10306;52.128;5.208;2023-04-29T01:07:17;30.83;;;17.13;;
20294;SDS011;10306;52.128;5.208;2023-04-29T01:12:26;26.80;;;15.80;;
20294;SDS011;10306;52.128;5.208;2023-04-29T01:17:25;27.43;;;15.33;;
20294;SDS011;10306;52.128;5.208;2023-04-29T01:19:56;25.23;;;16.07;;
20294;SDS011;10306;52.128;5.208;2023-04-29T01:22:23;28.20;;;16.67;;
20294;SDS011;10306;52.128;5.208;2023-04-29T01:24:49;23.17;;;14.80;;
20294;SDS011;10306;52.128;5.208;2023-04-29T01:32:41;28.07;;;16.67;;
20294;SDS011;10306;52.128;5.208;2023-04-29T01:40:19;26.40;;;16.07;;
20294;SDS011;10306;52.128;5.208;2023-04-29T01:43:00;29.17;;;16.20;;
20294;SDS011;10306;52.128;5.208;2023-04-29T01:45:28;27.03;;;15.27;;
20294;SDS011;10306;52.128;5.208;2023-04-29T01:47:55;23.33;;;15.03;;
20294;SDS011;10306;52.128;5.208;2023-04-29T01:50:22;28.60;;;15.97;;
20294;SDS011;10306;52.128;5.208;2023-04-29T01:52:48;28.13;;;15.73;;
20294;SDS011;10306;52.128;5.208;2023-04-29T01:55:14;24.77;;;15.13;;
20294;SDS011;10306;52.128;5.208;2023-04-29T01:57:40;23.47;;;15.23;;
20294;SDS011;10306;52.128;5.208;2023-04-29T02:00:06;24.00;;;14.63;;
20294;SDS011;10306;52.128;5.208;2023-04-29T02:02:33;21.60;;;15.00;;
20294;SDS011;10306;52.128;5.208;2023-04-29T02:04:59;27.63;;;15.70;;
20294;SDS011;10306;52.128;5.208;2023-04-29T02:07:25;25.10;;;16.00;;
20294;SDS011;10306;52.128;5.208;2023-04-29T02:09:51;23.33;;;14.17;;
20294;SDS011;10306;52.128;5.208;2023-04-29T02:12:17;25.47;;;15.00;;
20294;SDS011;10306;52.128;5.208;2023-04-29T02:14:43;24.17;;;15.93;;
20294;SDS011;10306;52.128;5.208;2023-04-29T02:17:11;24.23;;;14.80;;
20294;SDS011;10306;52.128;5.208;2023-04-29T02:19:37;26.83;;;14.43;;
20294;SDS011;10306;52.128;5.208;2023-04-29T02:22:03;20.07;;;13.47;;
20294;SDS011;10306;52.128;5.208;2023-04-29T02:24:30;23.90;;;14.50;;
20294;SDS011;10306;52.128;5.208;2023-04-29T02:26:56;19.47;;;14.03;;
20294;SDS011;10306;52.128;5.208;2023-04-29T02:29:23;22.77;;;15.13;;
20294;SDS011;10306;52.128;5.208;2023-04-29T02:31:50;20.63;;;14.30;;
20294;SDS011;10306;52.128;5.208;2023-04-29T02:34:16;20.80;;;14.60;;
20294;SDS011;10306;52.128;5.208;2023-04-29T02:36:42;21.07;;;13.83;;
20294;SDS011;10306;52.128;5.208;2023-04-29T02:39:08;23.43;;;14.20;;
20294;SDS011;10306;52.128;5.208;2023-04-29T02:41:34;18.67;;;13.43;;
20294;SDS011;10306;52.128;5.208;2023-04-29T02:44:00;23.10;;;14.13;;
20294;SDS011;10306;52.128;5.208;2023-04-29T02:46:26;21.13;;;13.57;;
20294;SDS011;10306;52.128;5.208;2023-04-29T02:48:52;19.53;;;14.23;;
20294;SDS011;10306;52.128;5.208;2023-04-29T02:51:17;25.50;;;14.37;;
20294;SDS011;10306;52.128;5.208;2023-04-29T02:53:43;20.60;;;13.23;;
20294;SDS011;10306;52.128;5.208;2023-04-29T02:56:09;20.13;;;12.67;;
20294;SDS011;10306;52.128;5.208;2023-04-29T02:58:35;28.23;;;14.33;;
20294;SDS011;10306;52.128;5.208;2023-04-29T03:01:01;19.93;;;13.63;;
20294;SDS011;10306;52.128;5.208;2023-04-29T03:03:28;20.00;;;13.30;;
20294;SDS011;10306;52.128;5.208;2023-04-29T03:05:55;25.40;;;13.40;;
20294;SDS011;10306;52.128;5.208;2023-04-29T03:08:21;19.10;;;13.10;;
20294;SDS011;10306;52.128;5.208;2023-04-29T03:10:46;25.97;;;13.97;;
20294;SDS011;10306;52.128;5.208;2023-04-29T03:13:12;22.43;;;13.07;;
20294;SDS011;10306;52.128;5.208;2023-04-29T03:15:38;22.07;;;13.13;;
20294;SDS011;10306;52.128;5.208;2023-04-29T03:18:04;22.93;;;12.97;;
20294;SDS011;10306;52.128;5.208;2023-04-29T03:20:30;21.07;;;14.10;;
20294;SDS011;10306;52.128;5.208;2023-04-29T03:22:57;23.17;;;13.23;;
20294;SDS011;10306;52.128;5.208;2023-04-29T03:25:24;22.50;;;14.27;;
20294;SDS011;10306;52.128;5.208;2023-04-29T03:27:50;22.20;;;13.80;;
20294;SDS011;10306;52.128;5.208;2023-04-29T03:30:16;21.33;;;13.20;;
20294;SDS011;10306;52.128;5.208;2023-04-29T03:32:42;20.10;;;13.27;;
20294;SDS011;10306;52.128;5.208;2023-04-29T03:35:08;23.30;;;14.40;;
20294;SDS011;10306;52.128;5.208;2023-04-29T03:37:35;25.07;;;14.47;;
20294;SDS011;10306;52.128;5.208;2023-04-29T03:40:01;23.47;;;14.60;;
20294;SDS011;10306;52.128;5.208;2023-04-29T03:42:28;21.13;;;13.97;;
20294;SDS011;10306;52.128;5.208;2023-04-29T03:44:54;24.53;;;13.97;;
20294;SDS011;10306;52.128;5.208;2023-04-29T03:47:20;25.43;;;14.03;;
20294;SDS011;10306;52.128;5.208;2023-04-29T03:49:46;23.77;;;13.60;;
20294;SDS011;10306;52.128;5.208;2023-04-29T03:52:12;23.90;;;15.37;;
20294;SDS011;10306;52.128;5.208;2023-04-29T03:54:38;22.50;;;13.37;;
20294;SDS011;10306;52.128;5.208;2023-04-29T03:57:04;26.60;;;14.70;;
20294;SDS011;10306;52.128;5.208;2023-04-29T03:59:30;24.43;;;15.17;;
20294;SDS011;10306;52.128;5.208;2023-04-29T04:01:56;22.17;;;13.80;;
20294;SDS011;10306;52.128;5.208;2023-04-29T04:04:22;23.67;;;14.53;;
20294;SDS011;10306;52.128;5.208;2023-04-29T04:06:48;22.67;;;13.90;;
20294;SDS011;10306;52.128;5.208;2023-04-29T04:09:16;24.07;;;14.77;;
20294;SDS011;10306;52.128;5.208;2023-04-29T04:11:42;25.07;;;13.60;;
20294;SDS011;10306;52.128;5.208;2023-04-29T04:14:08;23.57;;;14.00;;
20294;SDS011;10306;52.128;5.208;2023-04-29T04:16:34;23.30;;;14.30;;
20294;SDS011;10306;52.128;5.208;2023-04-29T04:19:00;20.50;;;13.63;;
20294;SDS011;10306;52.128;5.208;2023-04-29T04:21:26;27.67;;;15.07;;
20294;SDS011;10306;52.128;5.208;2023-04-29T04:23:54;23.90;;;14.27;;
20294;SDS011;10306;52.128;5.208;2023-04-29T04:26:20;22.30;;;13.60;;
20294;SDS011;10306;52.128;5.208;2023-04-29T04:28:47;21.67;;;14.13;;
20294;SDS011;10306;52.128;5.208;2023-04-29T04:31:13;25.17;;;14.63;;
20294;SDS011;10306;52.128;5.208;2023-04-29T04:33:39;23.47;;;14.70;;
20294;SDS011;10306;52.128;5.208;2023-04-29T04:36:05;21.47;;;13.43;;
20294;SDS011;10306;52.128;5.208;2023-04-29T04:38:32;20.30;;;13.17;;
20294;SDS011;10306;52.128;5.208;2023-04-29T04:40:58;20.63;;;13.43;;
20294;SDS011;10306;52.128;5.208;2023-04-29T04:43:24;21.00;;;13.80;;
20294;SDS011;10306;52.128;5.208;2023-04-29T04:45:50;19.60;;;12.87;;
20294;SDS011;10306;52.128;5.208;2023-04-29T04:48:17;18.27;;;12.10;;
20294;SDS011;10306;52.128;5.208;2023-04-29T04:50:43;17.00;;;12.00;;
20294;SDS011;10306;52.128;5.208;2023-04-29T04:53:09;15.10;;;11.87;;
20294;SDS011;10306;52.128;5.208;2023-04-29T04:55:35;13.77;;;11.27;;
20294;SDS011;10306;52.128;5.208;2023-04-29T04:58:01;15.50;;;11.27;;
20294;SDS011;10306;52.128;5.208;2023-04-29T05:00:27;13.20;;;11.07;;
20294;SDS011;10306;52.128;5.208;2023-04-29T05:02:53;16.50;;;10.70;;
20294;SDS011;10306;52.128;5.208;2023-04-29T05:05:19;13.40;;;10.23;;
20294;SDS011;10306;52.128;5.208;2023-04-29T05:07:45;14.40;;;10.10;;
20294;SDS011;10306;52.128;5.208;2023-04-29T05:10:11;11.97;;;10.13;;
20294;SDS011;10306;52.128;5.208;2023-04-29T05:12:37;10.10;;;9.10;;
20294;SDS011;10306;52.128;5.208;2023-04-29T05:15:03;11.47;;;9.10;;
20294;SDS011;10306;52.128;5.208;2023-04-29T05:17:29;11.43;;;8.80;;
20294;SDS011;10306;52.128;5.208;2023-04-29T05:19:55;10.93;;;9.30;;
20294;SDS011;10306;52.128;5.208;2023-04-29T05:22:21;11.90;;;8.60;;
20294;SDS011;10306;52.128;5.208;2023-04-29T05:24:47;11.17;;;8.57;;
20294;SDS011;10306;52.128;5.208;2023-04-29T05:27:13;14.07;;;9.43;;
20294;SDS011;10306;52.128;5.208;2023-04-29T05:29:40;10.73;;;9.60;;
20294;SDS011;10306;52.128;5.208;2023-04-29T05:32:06;14.93;;;10.10;;
20294;SDS011;10306;52.128;5.208;2023-04-29T05:34:31;11.13;;;9.80;;
20294;SDS011;10306;52.128;5.208;2023-04-29T05:36:57;13.17;;;10.30;;
20294;SDS011;10306;52.128;5.208;2023-04-29T05:39:23;14.97;;;11.57;;
20294;SDS011;10306;52.128;5.208;2023-04-29T05:41:50;20.00;;;12.20;;
20294;SDS011;10306;52.128;5.208;2023-04-29T05:44:16;20.20;;;12.77;;
20294;SDS011;10306;52.128;5.208;2023-04-29T05:46:42;20.73;;;13.77;;
20294;SDS011;10306;52.128;5.208;2023-04-29T05:49:08;18.83;;;13.00;;
20294;SDS011;10306;52.128;5.208;2023-04-29T05:51:34;22.87;;;13.27;;
20294;SDS011;10306;52.128;5.208;2023-04-29T05:54:00;17.23;;;12.53;;
20294;SDS011;10306;52.128;5.208;2023-04-29T05:56:26;21.10;;;13.10;;
20294;SDS011;10306;52.128;5.208;2023-04-29T05:58:52;19.03;;;13.57;;
20294;SDS011;10306;52.128;5.208;2023-04-29T06:01:18;19.83;;;12.63;;
20294;SDS011;10306;52.128;5.208;2023-04-29T06:03:44;19.77;;;12.87;;
20294;SDS011;10306;52.128;5.208;2023-04-29T06:06:10;19.97;;;12.90;;
20294;SDS011;10306;52.128;5.208;2023-04-29T06:08:36;19.23;;;13.07;;
20294;SDS011;10306;52.128;5.208;2023-04-29T06:11:02;19.47;;;13.50;;
20294;SDS011;10306;52.128;5.208;2023-04-29T06:13:29;15.53;;;12.43;;
20294;SDS011;10306;52.128;5.208;2023-04-29T06:15:55;17.20;;;11.67;;
20294;SDS011;10306;52.128;5.208;2023-04-29T06:18:21;18.57;;;11.83;;
20294;SDS011;10306;52.128;5.208;2023-04-29T06:20:47;17.17;;;12.10;;
20294;SDS011;10306;52.128;5.208;2023-04-29T06:23:13;17.83;;;11.97;;
20294;SDS011;10306;52.128;5.208;2023-04-29T06:25:39;18.53;;;12.67;;
20294;SDS011;10306;52.128;5.208;2023-04-29T06:28:05;18.93;;;11.40;;
20294;SDS011;10306;52.128;5.208;2023-04-29T06:30:32;16.30;;;11.63;;
20294;SDS011;10306;52.128;5.208;2023-04-29T06:32:58;17.33;;;12.23;;
20294;SDS011;10306;52.128;5.208;2023-04-29T06:35:24;15.13;;;10.73;;
20294;SDS011;10306;52.128;5.208;2023-04-29T06:37:50;13.83;;;11.00;;
20294;SDS011;10306;52.128;5.208;2023-04-29T06:40:16;15.73;;;11.03;;
20294;SDS011;10306;52.128;5.208;2023-04-29T06:42:42;16.97;;;12.07;;
20294;SDS011;10306;52.128;5.208;2023-04-29T06:45:09;13.30;;;10.13;;
20294;SDS011;10306;52.128;5.208;2023-04-29T06:47:35;16.00;;;10.20;;
20294;SDS011;10306;52.128;5.208;2023-04-29T06:50:01;14.83;;;10.13;;
20294;SDS011;10306;52.128;5.208;2023-04-29T06:52:27;20.53;;;10.43;;
20294;SDS011;10306;52.128;5.208;2023-04-29T06:54:53;13.80;;;10.40;;
20294;SDS011;10306;52.128;5.208;2023-04-29T06:57:19;20.40;;;10.20;;
20294;SDS011;10306;52.128;5.208;2023-04-29T06:59:45;14.67;;;10.40;;
20294;SDS011;10306;52.128;5.208;2023-04-29T07:02:12;11.90;;;9.73;;
20294;SDS011;10306;52.128;5.208;2023-04-29T07:04:38;12.23;;;9.40;;
20294;SDS011;10306;52.128;5.208;2023-04-29T07:07:04;13.20;;;9.00;;
20294;SDS011;10306;52.128;5.208;2023-04-29T07:09:30;12.10;;;9.23;;
20294;SDS011;10306;52.128;5.208;2023-04-29T07:11:56;17.87;;;9.37;;
20294;SDS011;10306;52.128;5.208;2023-04-29T07:14:22;13.40;;;9.00;;
20294;SDS011;10306;52.128;5.208;2023-04-29T07:16:52;14.20;;;9.40;;
20294;SDS011;10306;52.128;5.208;2023-04-29T07:19:18;16.43;;;10.60;;
20294;SDS011;10306;52.128;5.208;2023-04-29T07:21:44;16.87;;;10.13;;
20294;SDS011;10306;52.128;5.208;2023-04-29T07:24:10;11.33;;;8.97;;
20294;SDS011;10306;52.128;5.208;2023-04-29T07:26:36;15.30;;;10.13;;
20294;SDS011;10306;52.128;5.208;2023-04-29T07:29:02;17.07;;;9.37;;
20294;SDS011;10306;52.128;5.208;2023-04-29T07:31:28;12.00;;;9.20;;
20294;SDS011;10306;52.128;5.208;2023-04-29T07:33:54;13.20;;;8.73;;
20294;SDS011;10306;52.128;5.208;2023-04-29T07:36:21;9.90;;;8.50;;
20294;SDS011;10306;52.128;5.208;2023-04-29T07:38:47;13.13;;;7.60;;
20294;SDS011;10306;52.128;5.208;2023-04-29T07:41:13;9.63;;;7.60;;
20294;SDS011;10306;52.128;5.208;2023-04-29T07:43:39;10.70;;;7.80;;
20294;SDS011;10306;52.128;5.208;2023-04-29T07:46:05;9.60;;;7.17;;
20294;SDS011;10306;52.128;5.208;2023-04-29T07:48:35;9.67;;;7.37;;
20294;SDS011;10306;52.128;5.208;2023-04-29T07:51:02;14.40;;;7.70;;
20294;SDS011;10306;52.128;5.208;2023-04-29T07:53:28;12.57;;;7.47;;
20294;SDS011;10306;52.128;5.208;2023-04-29T07:55:54;12.07;;;8.10;;
20294;SDS011;10306;52.128;5.208;2023-04-29T07:58:20;10.20;;;7.70;;
20294;SDS011;10306;52.128;5.208;2023-04-29T08:00:46;9.47;;;7.27;;
20294;SDS011;10306;52.128;5.208;2023-04-29T08:03:12;12.70;;;8.17;;
20294;SDS011;10306;52.128;5.208;2023-04-29T08:05:38;9.60;;;7.40;;
20294;SDS011;10306;52.128;5.208;2023-04-29T08:08:04;8.83;;;7.60;;
20294;SDS011;10306;52.128;5.208;2023-04-29T08:10:30;10.93;;;7.70;;
20294;SDS011;10306;52.128;5.208;2023-04-29T08:12:56;11.50;;;7.70;;
20294;SDS011;10306;52.128;5.208;2023-04-29T08:15:23;8.03;;;7.23;;
20294;SDS011;10306;52.128;5.208;2023-04-29T08:17:49;10.77;;;7.90;;
20294;SDS011;10306;52.128;5.208;2023-04-29T08:20:15;10.93;;;7.57;;
20294;SDS011;10306;52.128;5.208;2023-04-29T08:22:40;9.50;;;7.53;;
20294;SDS011;10306;52.128;5.208;2023-04-29T08:25:07;7.20;;;6.50;;
20294;SDS011;10306;52.128;5.208;2023-04-29T08:27:33;10.17;;;6.77;;
20294;SDS011;10306;52.128;5.208;2023-04-29T08:29:59;11.90;;;7.20;;
20294;SDS011;10306;52.128;5.208;2023-04-29T08:32:25;10.03;;;6.70;;
20294;SDS011;10306;52.128;5.208;2023-04-29T08:34:51;7.87;;;7.03;;
20294;SDS011;10306;52.128;5.208;2023-04-29T08:37:17;10.00;;;6.50;;
20294;SDS011;10306;52.128;5.208;2023-04-29T08:39:44;9.43;;;6.90;;
20294;SDS011;10306;52.128;5.208;2023-04-29T08:42:11;9.93;;;6.77;;
20294;SDS011;10306;52.128;5.208;2023-04-29T08:44:38;12.33;;;7.87;;
20294;SDS011;10306;52.128;5.208;2023-04-29T08:47:05;9.93;;;7.50;;
20294;SDS011;10306;52.128;5.208;2023-04-29T08:49:31;9.33;;;7.10;;
20294;SDS011;10306;52.128;5.208;2023-04-29T08:51:58;8.37;;;6.83;;
20294;SDS011;10306;52.128;5.208;2023-04-29T08:54:24;7.40;;;6.70;;
20294;SDS011;10306;52.128;5.208;2023-04-29T08:56:52;7.30;;;6.60;;
20294;SDS011;10306;52.128;5.208;2023-04-29T08:59:18;7.33;;;6.60;;
20294;SDS011;10306;52.128;5.208;2023-04-29T09:01:45;7.40;;;6.20;;
20294;SDS011;10306;52.128;5.208;2023-04-29T09:04:24;7.17;;;5.93;;
20294;SDS011;10306;52.128;5.208;2023-04-29T09:06:55;10.27;;;6.13;;
20294;SDS011;10306;52.128;5.208;2023-04-29T09:09:21;11.07;;;6.50;;
20294;SDS011;10306;52.128;5.208;2023-04-29T09:11:49;8.23;;;5.93;;
20294;SDS011;10306;52.128;5.208;2023-04-29T09:14:14;10.00;;;5.87;;
20294;SDS011;10306;52.128;5.208;2023-04-29T09:16:41;6.80;;;5.77;;
20294;SDS011;10306;52.128;5.208;2023-04-29T09:19:06;9.70;;;6.53;;
20294;SDS011;10306;52.128;5.208;2023-04-29T09:21:32;8.13;;;5.63;;
20294;SDS011;10306;52.128;5.208;2023-04-29T09:24:00;6.53;;;5.87;;
20294;SDS011;10306;52.128;5.208;2023-04-29T09:26:26;6.37;;;5.87;;
20294;SDS011;10306;52.128;5.208;2023-04-29T09:31:30;7.17;;;6.57;;
20294;SDS011;10306;52.128;5.208;2023-04-29T09:33:56;6.37;;;5.67;;
20294;SDS011;10306;52.128;5.208;2023-04-29T09:36:39;7.80;;;6.13;;
20294;SDS011;10306;52.128;5.208;2023-04-29T09:39:06;7.57;;;5.40;;
20294;SDS011;10306;52.128;5.208;2023-04-29T09:41:39;5.97;;;5.13;;
20294;SDS011;10306;52.128;5.208;2023-04-29T09:44:06;5.50;;;5.00;;
20294;SDS011;10306;52.128;5.208;2023-04-29T09:46:33;5.00;;;4.60;;
20294;SDS011;10306;52.128;5.208;2023-04-29T09:49:00;5.77;;;4.43;;
20294;SDS011;10306;52.128;5.208;2023-04-29T09:51:26;4.60;;;4.20;;
20294;SDS011;10306;52.128;5.208;2023-04-29T09:53:52;5.30;;;4.90;;
20294;SDS011;10306;52.128;5.208;2023-04-29T09:56:18;4.77;;;4.47;;
20294;SDS011;10306;52.128;5.208;2023-04-29T09:58:45;4.83;;;4.43;;
20294;SDS011;10306;52.128;5.208;2023-04-29T10:01:11;5.23;;;4.60;;
20294;SDS011;10306;52.128;5.208;2023-04-29T10:03:38;5.43;;;4.30;;
20294;SDS011;10306;52.128;5.208;2023-04-29T10:06:06;5.30;;;4.90;;
20294;SDS011;10306;52.128;5.208;2023-04-29T10:08:33;5.20;;;4.70;;
20294;SDS011;10306;52.128;5.208;2023-04-29T10:11:00;5.77;;;4.60;;
20294;SDS011;10306;52.128;5.208;2023-04-29T10:13:27;4.70;;;4.30;;
20294;SDS011;10306;52.128;5.208;2023-04-29T10:18:35;5.57;;;4.97;;
20294;SDS011;10306;52.128;5.208;2023-04-29T10:21:01;5.77;;;4.87;;
20294;SDS011;10306;52.128;5.208;2023-04-29T10:23:28;9.90;;;5.07;;
20294;SDS011;10306;52.128;5.208;2023-04-29T10:25:55;6.50;;;4.67;;
20294;SDS011;10306;52.128;5.208;2023-04-29T10:28:22;6.67;;;5.97;;
20294;SDS011;10306;52.128;5.208;2023-04-29T10:30:51;6.10;;;5.00;;
20294;SDS011;10306;52.128;5.208;2023-04-29T10:33:18;5.13;;;4.73;;
20294;SDS011;10306;52.128;5.208;2023-04-29T10:35:47;6.20;;;4.07;;
20294;SDS011;10306;52.128;5.208;2023-04-29T10:38:22;4.30;;;4.00;;
20294;SDS011;10306;52.128;5.208;2023-04-29T10:40:49;5.93;;;4.03;;
20294;SDS011;10306;52.128;5.208;2023-04-29T10:43:16;4.23;;;3.83;;
20294;SDS011;10306;52.128;5.208;2023-04-29T10:45:47;3.40;;;3.20;;
20294;SDS011;10306;52.128;5.208;2023-04-29T10:48:13;3.70;;;3.50;;
20294;SDS011;10306;52.128;5.208;2023-04-29T10:50:41;5.13;;;4.50;;
20294;SDS011;10306;52.128;5.208;2023-04-29T10:53:24;5.07;;;4.57;;
20294;SDS011;10306;52.128;5.208;2023-04-29T10:55:53;4.20;;;3.80;;
20294;SDS011;10306;52.128;5.208;2023-04-29T10:58:34;3.83;;;3.63;;
20294;SDS011;10306;52.128;5.208;2023-04-29T11:01:00;4.30;;;4.00;;
20294;SDS011;10306;52.128;5.208;2023-04-29T11:06:11;3.90;;;3.70;;
20294;SDS011;10306;52.128;5.208;2023-04-29T11:08:37;3.87;;;3.57;;
20294;SDS011;10306;52.128;5.208;2023-04-29T11:11:04;4.30;;;3.90;;
20294;SDS011;10306;52.128;5.208;2023-04-29T11:13:30;3.87;;;3.57;;
20294;SDS011;10306;52.128;5.208;2023-04-29T11:16:04;4.20;;;3.93;;
20294;SDS011;10306;52.128;5.208;2023-04-29T11:18:31;6.50;;;3.73;;
20294;SDS011;10306;52.128;5.208;2023-04-29T11:23:34;3.20;;;3.00;;
20294;SDS011;10306;52.128;5.208;2023-04-29T11:26:00;3.47;;;3.27;;
20294;SDS011;10306;52.128;5.208;2023-04-29T11:28:26;3.50;;;3.30;;
20294;SDS011;10306;52.128;5.208;2023-04-29T11:30:52;4.10;;;3.80;;
20294;SDS011;10306;52.128;5.208;2023-04-29T11:33:19;4.73;;;3.37;;
20294;SDS011;10306;52.128;5.208;2023-04-29T11:35:45;3.53;;;3.23;;
20294;SDS011;10306;52.128;5.208;2023-04-29T11:38:11;4.07;;;3.77;;
20294;SDS011;10306;52.128;5.208;2023-04-29T11:40:56;3.50;;;3.20;;
20294;SDS011;10306;52.128;5.208;2023-04-29T11:43:23;3.97;;;3.67;;
20294;SDS011;10306;52.128;5.208;2023-04-29T11:45:49;3.60;;;3.40;;
20294;SDS011;10306;52.128;5.208;2023-04-29T11:50:45;3.83;;;3.43;;
20294;SDS011;10306;52.128;5.208;2023-04-29T11:53:11;4.43;;;3.60;;
20294;SDS011;10306;52.128;5.208;2023-04-29T11:55:38;3.47;;;3.17;;
20294;SDS011;10306;52.128;5.208;2023-04-29T11:58:04;4.23;;;2.83;;
20294;SDS011;10306;52.128;5.208;2023-04-29T12:00:30;3.87;;;3.20;;
20294;SDS011;10306;52.128;5.208;2023-04-29T12:02:56;2.73;;;2.57;;
20294;SDS011;10306;52.128;5.208;2023-04-29T12:05:26;3.50;;;2.87;;
20294;SDS011;10306;52.128;5.208;2023-04-29T12:07:53;4.20;;;3.70;;
20294;SDS011;10306;52.128;5.208;2023-04-29T12:10:19;3.83;;;3.47;;
20294;SDS011;10306;52.128;5.208;2023-04-29T12:12:45;3.50;;;3.20;;
20294;SDS011;10306;52.128;5.208;2023-04-29T12:15:12;3.70;;;3.40;;
20294;SDS011;10306;52.128;5.208;2023-04-29T12:17:39;4.67;;;3.00;;
20294;SDS011;10306;52.128;5.208;2023-04-29T12:20:08;3.30;;;2.90;;
20294;SDS011;10306;52.128;5.208;2023-04-29T12:22:34;3.23;;;3.00;;
20294;SDS011;10306;52.128;5.208;2023-04-29T12:25:04;3.33;;;2.90;;
20294;SDS011;10306;52.128;5.208;2023-04-29T12:27:31;3.43;;;2.80;;
20294;SDS011;10306;52.128;5.208;2023-04-29T12:29:58;3.43;;;3.23;;
20294;SDS011;10306;52.128;5.208;2023-04-29T12:32:24;3.10;;;2.83;;
20294;SDS011;10306;52.128;5.208;2023-04-29T12:34:50;2.75;;;2.55;;
20294;SDS011;10306;52.128;5.208;2023-04-29T12:37:17;2.80;;;2.60;;
20294;SDS011;10306;52.128;5.208;2023-04-29T12:39:42;3.63;;;3.33;;
20294;SDS011;10306;52.128;5.208;2023-04-29T12:42:15;3.58;;;2.70;;
20294;SDS011;10306;52.128;5.208;2023-04-29T12:44:43;2.35;;;2.25;;
20294;SDS011;10306;52.128;5.208;2023-04-29T12:47:09;1.98;;;1.88;;
20294;SDS011;10306;52.128;5.208;2023-04-29T12:49:37;2.42;;;2.33;;
20294;SDS011;10306;52.128;5.208;2023-04-29T12:52:04;2.20;;;2.10;;
20294;SDS011;10306;52.128;5.208;2023-04-29T12:54:33;2.83;;;2.03;;
20294;SDS011;10306;52.128;5.208;2023-04-29T12:57:00;3.15;;;2.03;;
20294;SDS011;10306;52.128;5.208;2023-04-29T12:59:26;2.40;;;2.30;;
20294;SDS011;10306;52.128;5.208;2023-04-29T13:01:52;2.33;;;2.03;;
20294;SDS011;10306;52.128;5.208;2023-04-29T13:04:18;2.42;;;2.33;;
20294;SDS011;10306;52.128;5.208;2023-04-29T13:06:44;3.17;;;2.40;;
20294;SDS011;10306;52.128;5.208;2023-04-29T13:09:10;2.13;;;2.03;;
20294;SDS011;10306;52.128;5.208;2023-04-29T13:11:37;3.42;;;2.75;;
20294;SDS011;10306;52.128;5.208;2023-04-29T13:14:03;4.22;;;2.85;;
20294;SDS011;10306;52.128;5.208;2023-04-29T13:16:30;2.70;;;2.50;;
20294;SDS011;10306;52.128;5.208;2023-04-29T13:18:57;2.85;;;2.75;;
20294;SDS011;10306;52.128;5.208;2023-04-29T13:21:23;5.13;;;2.53;;
20294;SDS011;10306;52.128;5.208;2023-04-29T13:23:49;1.90;;;1.80;;
20294;SDS011;10306;52.128;5.208;2023-04-29T13:26:15;2.58;;;2.40;;
20294;SDS011;10306;52.128;5.208;2023-04-29T13:28:42;2.08;;;1.98;;
20294;SDS011;10306;52.128;5.208;2023-04-29T13:31:08;2.35;;;2.15;;
20294;SDS011;10306;52.128;5.208;2023-04-29T13:33:34;3.33;;;2.75;;
20294;SDS011;10306;52.128;5.208;2023-04-29T13:36:00;3.10;;;2.80;;
20294;SDS011;10306;52.128;5.208;2023-04-29T13:38:26;2.88;;;2.78;;
20294;SDS011;10306;52.128;5.208;2023-04-29T13:40:52;3.08;;;2.88;;
20294;SDS011;10306;52.128;5.208;2023-04-29T13:43:18;2.83;;;2.70;;
20294;SDS011;10306;52.128;5.208;2023-04-29T13:45:44;3.47;;;2.92;;
20294;SDS011;10306;52.128;5.208;2023-04-29T13:48:10;3.35;;;3.13;;
20294;SDS011;10306;52.128;5.208;2023-04-29T13:50:36;2.92;;;2.72;;
20294;SDS011;10306;52.128;5.208;2023-04-29T13:53:05;2.65;;;2.45;;
20294;SDS011;10306;52.128;5.208;2023-04-29T13:55:31;3.67;;;2.97;;
20294;SDS011;10306;52.128;5.208;2023-04-29T13:57:59;3.15;;;2.85;;
20294;SDS011;10306;52.128;5.208;2023-04-29T14:00:25;2.75;;;2.40;;
20294;SDS011;10306;52.128;5.208;2023-04-29T14:02:51;2.75;;;2.65;;
20294;SDS011;10306;52.128;5.208;2023-04-29T14:05:17;2.78;;;2.58;;
20294;SDS011;10306;52.128;5.208;2023-04-29T14:07:43;2.65;;;2.45;;
20294;SDS011;10306;52.128;5.208;2023-04-29T14:10:09;2.83;;;2.70;;
20294;SDS011;10306;52.128;5.208;2023-04-29T14:12:35;2.97;;;2.78;;
20294;SDS011;10306;52.128;5.208;2023-04-29T14:15:01;3.90;;;2.70;;
20294;SDS011;10306;52.128;5.208;2023-04-29T14:17:27;2.70;;;2.45;;
20294;SDS011;10306;52.128;5.208;2023-04-29T14:19:53;2.58;;;2.40;;
20294;SDS011;10306;52.128;5.208;2023-04-29T14:22:19;2.25;;;2.15;;
20294;SDS011;10306;52.128;5.208;2023-04-29T14:24:45;2.28;;;2.08;;
20294;SDS011;10306;52.128;5.208;2023-04-29T14:27:11;2.33;;;2.00;;
20294;SDS011;10306;52.128;5.208;2023-04-29T14:29:37;2.13;;;2.03;;
20294;SDS011;10306;52.128;5.208;2023-04-29T14:32:03;2.13;;;1.92;;
20294;SDS011;10306;52.128;5.208;2023-04-29T14:34:31;1.95;;;1.80;;
20294;SDS011;10306;52.128;5.208;2023-04-29T14:36:57;2.08;;;1.40;;
20294;SDS011;10306;52.128;5.208;2023-04-29T14:39:23;2.05;;;1.85;;
20294;SDS011;10306;52.128;5.208;2023-04-29T14:41:50;1.58;;;1.48;;
20294;SDS011;10306;52.128;5.208;2023-04-29T14:44:16;2.10;;;1.80;;
20294;SDS011;10306;52.128;5.208;2023-04-29T14:46:42;2.42;;;1.42;;
20294;SDS011;10306;52.128;5.208;2023-04-29T14:49:08;1.80;;;1.65;;
20294;SDS011;10306;52.128;5.208;2023-04-29T14:51:34;1.80;;;1.70;;
20294;SDS011;10306;52.128;5.208;2023-04-29T14:54:00;2.00;;;1.90;;
20294;SDS011;10306;52.128;5.208;2023-04-29T14:56:26;1.80;;;1.70;;
20294;SDS011;10306;52.128;5.208;2023-04-29T14:58:52;1.50;;;1.40;;